createdAt,value
2024-01-22T00:00:46.996Z,3.60
2024-01-22T00:03:12.253Z,3.60
2024-01-22T00:05:36.127Z,3.50
2024-01-22T00:08:00.234Z,3.50
2024-01-22T00:10:23.938Z,3.50
2024-01-22T00:12:48.052Z,3.40
2024-01-22T00:15:12.102Z,3.40
2024-01-22T00:17:35.900Z,3.40
2024-01-22T00:20:01.137Z,3.40
2024-01-22T00:22:24.856Z,3.40
2024-01-22T00:24:48.978Z,3.40
2024-01-22T00:27:12.740Z,3.30
2024-01-22T00:29:36.852Z,3.30
2024-01-22T00:32:00.572Z,3.30
2024-01-22T00:34:24.394Z,3.30
2024-01-22T00:36:50.751Z,3.30
2024-01-22T00:39:14.533Z,3.30
2024-01-22T00:41:38.246Z,3.30
2024-01-22T00:44:01.972Z,3.30
2024-01-22T00:46:25.648Z,3.30
2024-01-22T00:48:49.541Z,3.30
2024-01-22T00:51:13.616Z,3.30
2024-01-22T00:53:38.782Z,3.30
2024-01-22T00:56:02.537Z,3.40
2024-01-22T00:58:26.255Z,3.40
2024-01-22T01:00:50.178Z,3.40
2024-01-22T01:03:14.040Z,3.30
2024-01-22T01:05:38.050Z,3.40
2024-01-22T01:08:01.802Z,3.40
2024-01-22T01:10:26.870Z,3.40
2024-01-22T01:12:50.699Z,3.40
2024-01-22T01:15:14.461Z,3.40
2024-01-22T01:17:39.011Z,3.40
2024-01-22T01:20:05.088Z,3.40
2024-01-22T01:22:28.869Z,3.40
2024-01-22T01:24:53.240Z,3.40
2024-01-22T01:27:20.470Z,3.40
2024-01-22T01:29:44.190Z,3.50
2024-01-22T01:32:08.873Z,3.50
2024-01-22T01:34:32.916Z,3.50
2024-01-22T01:36:56.725Z,3.50
2024-01-22T01:39:20.442Z,3.50
2024-01-22T01:41:44.175Z,3.50
2024-01-22T01:44:09.329Z,3.50
2024-01-22T01:46:33.116Z,3.50
2024-01-22T01:48:57.907Z,3.50
2024-01-22T01:51:22.772Z,3.50
2024-01-22T01:53:48.095Z,3.60
2024-01-22T01:56:12.356Z,3.60
2024-01-22T01:58:36.181Z,3.60
2024-01-22T02:01:02.788Z,3.60
2024-01-22T02:03:27.232Z,3.60
2024-01-22T02:05:51.115Z,3.60
2024-01-22T02:08:14.893Z,3.60
2024-01-22T02:10:38.631Z,3.60
2024-01-22T02:13:04.782Z,3.60
2024-01-22T02:15:28.556Z,3.70
2024-01-22T02:17:53.790Z,3.60
2024-01-22T02:20:17.928Z,3.70
2024-01-22T02:22:41.620Z,3.70
2024-01-22T02:25:08.733Z,3.70
2024-01-22T02:27:32.431Z,3.70
2024-01-22T02:29:56.250Z,3.80
2024-01-22T02:32:19.950Z,3.80
2024-01-22T02:34:43.740Z,3.80
2024-01-22T02:37:07.384Z,3.80
2024-01-22T02:39:31.254Z,3.80
2024-01-22T02:41:56.409Z,3.80
2024-01-22T02:44:20.257Z,3.80
2024-01-22T02:46:43.913Z,3.90
2024-01-22T02:49:09.989Z,3.90
2024-01-22T02:51:33.773Z,3.90
2024-01-22T02:53:57.600Z,3.90
2024-01-22T02:56:21.767Z,3.90
2024-01-22T02:58:47.078Z,3.90
2024-01-22T03:01:10.802Z,3.90
2024-01-22T03:03:34.574Z,4.00
2024-01-22T03:05:58.374Z,4.00
2024-01-22T03:08:22.154Z,4.00
2024-01-22T03:10:46.967Z,4.00
2024-01-22T03:13:10.734Z,4.00
2024-01-22T03:15:35.867Z,4.00
2024-01-22T03:17:59.754Z,4.00
2024-01-22T03:20:23.814Z,4.00
2024-01-22T03:22:47.558Z,4.10
2024-01-22T03:25:13.393Z,4.10
2024-01-22T03:27:37.385Z,4.10
2024-01-22T03:30:01.861Z,4.20
2024-01-22T03:32:27.063Z,4.20
2024-01-22T03:34:50.783Z,4.10
2024-01-22T03:37:14.603Z,4.10
2024-01-22T03:39:38.548Z,4.20
2024-01-22T03:42:02.309Z,4.20
2024-01-22T03:44:26.020Z,4.20
2024-01-22T03:46:49.781Z,4.20
2024-01-22T03:49:13.930Z,4.20
2024-01-22T03:51:37.754Z,4.30
2024-01-22T03:54:01.563Z,4.30
2024-01-22T03:56:25.353Z,4.40
2024-01-22T03:58:49.010Z,4.40
2024-01-22T04:01:21.147Z,4.40
2024-01-22T04:03:44.976Z,4.40
2024-01-22T04:06:10.512Z,4.30
2024-01-22T04:08:34.304Z,4.30
2024-01-22T04:10:57.958Z,4.30
2024-01-22T04:13:29.630Z,4.30
2024-01-22T04:15:58.853Z,4.30
2024-01-22T04:18:22.677Z,4.30
2024-01-22T04:20:46.765Z,4.30
2024-01-22T04:23:12.044Z,4.30
2024-01-22T04:25:35.789Z,4.30
2024-01-22T04:27:59.554Z,4.30
2024-01-22T04:30:23.633Z,4.30
2024-01-22T04:32:47.519Z,4.30
2024-01-22T04:35:11.516Z,4.40
2024-01-22T04:37:35.164Z,4.30
2024-01-22T04:40:11.417Z,4.40
2024-01-22T04:42:35.193Z,4.30
2024-01-22T04:44:58.898Z,4.40
2024-01-22T04:47:22.679Z,4.40
2024-01-22T04:49:46.441Z,4.40
2024-01-22T04:52:10.931Z,4.60
2024-01-22T04:54:34.616Z,4.40
2024-01-22T04:56:59.838Z,4.50
2024-01-22T04:59:23.896Z,4.60
2024-01-22T05:01:47.615Z,4.60
2024-01-22T05:04:11.511Z,4.60
2024-01-22T05:06:35.486Z,4.60
2024-01-22T05:08:59.584Z,4.60
2024-01-22T05:11:23.809Z,4.70
2024-01-22T05:13:52.443Z,4.70
2024-01-22T05:16:16.170Z,4.70
2024-01-22T05:18:40.041Z,4.80
2024-01-22T05:21:03.951Z,4.80
2024-01-22T05:23:28.185Z,4.90
2024-01-22T05:25:51.860Z,4.90
2024-01-22T05:28:15.517Z,4.90
2024-01-22T05:30:40.633Z,5.00
2024-01-22T05:33:04.397Z,5.00
2024-01-22T05:35:28.207Z,5.00
2024-01-22T05:37:52.062Z,5.00
2024-01-22T05:40:16.040Z,5.00
2024-01-22T05:42:39.763Z,5.00
2024-01-22T05:45:04.956Z,5.00
2024-01-22T05:47:30.254Z,5.10
2024-01-22T05:49:53.971Z,5.10
2024-01-22T05:52:17.641Z,5.10
2024-01-22T05:54:42.942Z,5.10
2024-01-22T05:57:07.074Z,5.10
2024-01-22T05:59:31.193Z,5.10
2024-01-22T06:01:58.000Z,5.20
2024-01-22T06:04:24.478Z,5.20
2024-01-22T06:06:48.502Z,5.30
2024-01-22T06:09:12.378Z,5.30
2024-01-22T06:11:36.477Z,5.30
2024-01-22T06:14:02.499Z,5.40
2024-01-22T06:16:26.678Z,5.40
2024-01-22T06:18:50.479Z,5.50
2024-01-22T06:21:15.591Z,5.70
2024-01-22T06:23:39.466Z,5.80
2024-01-22T06:26:03.439Z,5.90
2024-01-22T06:28:28.017Z,6.00
2024-01-22T06:30:51.685Z,6.10
2024-01-22T06:33:15.617Z,6.30
2024-01-22T06:35:39.445Z,6.30
2024-01-22T06:38:06.787Z,6.50
2024-01-22T06:40:31.888Z,6.50
2024-01-22T06:42:55.637Z,6.60
2024-01-22T06:45:19.561Z,6.70
2024-01-22T06:47:43.423Z,6.70
2024-01-22T06:50:08.527Z,6.70
2024-01-22T06:52:32.564Z,6.70
2024-01-22T06:54:58.243Z,6.80
2024-01-22T06:57:22.038Z,7.00
2024-01-22T06:59:45.763Z,7.00
2024-01-22T07:02:09.652Z,7.00
2024-01-22T07:04:33.595Z,7.10
2024-01-22T07:06:57.402Z,7.10
2024-01-22T07:09:21.187Z,7.10
2024-01-22T07:11:47.908Z,7.20
2024-01-22T07:14:11.636Z,7.20
2024-01-22T07:16:35.343Z,7.20
2024-01-22T07:18:59.166Z,7.20
2024-01-22T07:21:23.165Z,7.20
2024-01-22T07:23:47.044Z,7.20
2024-01-22T07:26:10.865Z,7.20
2024-01-22T07:28:35.941Z,7.20
2024-01-22T07:30:59.684Z,7.20
2024-01-22T07:33:23.492Z,7.20
2024-01-22T07:35:47.675Z,7.30
2024-01-22T07:38:11.389Z,7.40
2024-01-22T07:40:35.132Z,7.40
2024-01-22T07:42:58.836Z,7.30
2024-01-22T07:45:24.145Z,7.30
2024-01-22T07:47:47.985Z,7.30
2024-01-22T07:50:14.356Z,7.40
2024-01-22T07:52:38.166Z,7.30
2024-01-22T07:55:01.932Z,7.40
2024-01-22T07:57:25.663Z,7.40
2024-01-22T07:59:49.450Z,7.40
2024-01-22T08:02:14.643Z,7.40
2024-01-22T08:04:38.867Z,7.40
2024-01-22T08:07:04.595Z,7.30
2024-01-22T08:09:28.469Z,7.20
2024-01-22T08:11:52.647Z,7.10
2024-01-22T08:14:16.512Z,7.00
2024-01-22T08:16:40.164Z,6.90
2024-01-22T08:19:05.657Z,6.90
2024-01-22T08:21:29.492Z,6.80
2024-01-22T08:23:53.277Z,6.70
2024-01-22T08:26:17.052Z,6.70
2024-01-22T08:28:40.768Z,6.60
2024-01-22T08:31:04.435Z,6.60
2024-01-22T08:33:28.667Z,6.50
2024-01-22T08:35:53.929Z,6.50
2024-01-22T08:38:17.719Z,6.40
2024-01-22T08:40:41.971Z,6.40
2024-01-22T08:43:06.844Z,6.40
2024-01-22T08:45:30.695Z,6.40
2024-01-22T08:47:54.571Z,6.40
2024-01-22T08:50:20.522Z,6.30
2024-01-22T08:52:46.140Z,6.30
2024-01-22T08:55:10.603Z,6.30
2024-01-22T08:57:34.669Z,6.30
2024-01-22T08:59:58.615Z,6.30
2024-01-22T09:02:22.314Z,6.30
2024-01-22T09:04:46.032Z,6.30
2024-01-22T09:07:09.775Z,6.40
2024-01-22T09:09:35.344Z,6.30
2024-01-22T09:11:59.118Z,6.30
2024-01-22T09:14:22.837Z,6.30
2024-01-22T09:16:46.602Z,6.40
2024-01-22T09:19:10.493Z,6.30
2024-01-22T09:21:34.425Z,6.40
2024-01-22T09:23:58.142Z,6.40
2024-01-22T09:26:23.355Z,6.40
2024-01-22T09:28:46.993Z,6.40
2024-01-22T09:31:10.786Z,6.50
2024-01-22T09:33:34.595Z,6.50
2024-01-22T09:35:58.624Z,6.50
2024-01-22T09:38:23.097Z,6.60
2024-01-22T09:40:47.381Z,6.60
2024-01-22T09:43:12.882Z,6.70
2024-01-22T09:45:36.956Z,6.70
2024-01-22T09:48:01.783Z,6.80
2024-01-22T09:50:26.506Z,6.80
2024-01-22T09:52:54.276Z,6.90
2024-01-22T09:55:18.487Z,6.90
2024-01-22T09:57:45.219Z,6.90
2024-01-22T10:00:13.991Z,7.00
2024-01-22T10:02:39.231Z,7.10
2024-01-22T10:05:05.973Z,7.20
2024-01-22T10:07:31.139Z,7.20
2024-01-22T10:09:56.125Z,7.30
2024-01-22T10:12:22.395Z,7.30
2024-01-22T10:14:48.181Z,7.30
2024-01-22T10:17:22.394Z,7.40
2024-01-22T10:19:48.702Z,7.50
2024-01-22T10:22:13.957Z,7.50
2024-01-22T10:24:41.290Z,7.50
2024-01-22T10:27:17.382Z,7.60
2024-01-22T10:29:43.083Z,7.60
2024-01-22T10:32:08.710Z,7.70
2024-01-22T10:34:48.962Z,7.80
2024-01-22T10:37:15.390Z,7.80
2024-01-22T10:39:41.490Z,7.80
2024-01-22T10:42:13.115Z,7.90
2024-01-22T10:44:37.218Z,7.90
2024-01-22T10:47:05.007Z,8.00
2024-01-22T10:49:30.223Z,8.00
2024-01-22T10:51:56.621Z,8.10
2024-01-22T10:54:23.780Z,8.10
2024-01-22T10:56:53.732Z,8.10
2024-01-22T10:59:22.539Z,8.20
2024-01-22T11:01:47.351Z,8.20
2024-01-22T11:04:12.859Z,8.30
2024-01-22T11:06:41.866Z,8.30
2024-01-22T11:09:09.502Z,8.40
2024-01-22T11:11:38.065Z,8.40
2024-01-22T11:14:03.132Z,8.50
2024-01-22T11:16:27.297Z,8.60
2024-01-22T11:19:00.386Z,8.60
2024-01-22T11:21:25.808Z,8.60
2024-01-22T11:24:24.627Z,8.60
2024-01-22T11:27:06.876Z,8.70
2024-01-22T11:29:33.752Z,8.70
2024-01-22T11:31:58.673Z,8.80
2024-01-22T11:34:47.951Z,8.80
2024-01-22T11:37:13.730Z,8.80
2024-01-22T11:39:48.829Z,8.90
2024-01-22T11:42:30.632Z,8.90
2024-01-22T11:44:54.883Z,8.90
2024-01-22T11:47:19.160Z,9.00
2024-01-22T11:49:43.618Z,9.10
2024-01-22T11:52:12.657Z,9.10
2024-01-22T11:54:36.581Z,9.10
2024-01-22T11:57:02.251Z,9.10
2024-01-22T11:59:26.068Z,9.20
2024-01-22T12:01:49.780Z,9.30
2024-01-22T12:04:18.006Z,9.30
2024-01-22T12:06:51.425Z,9.30
2024-01-22T12:11:39.458Z,9.40
2024-01-22T12:14:06.077Z,9.40
2024-01-22T12:16:30.367Z,9.40
2024-01-22T12:18:54.403Z,9.40
2024-01-22T12:21:18.254Z,9.40
2024-01-22T12:23:42.658Z,9.40
2024-01-22T12:26:13.858Z,9.50
2024-01-22T12:28:37.571Z,9.50
2024-01-22T12:31:07.095Z,9.50
2024-01-22T12:33:35.045Z,9.60
2024-01-22T12:36:10.526Z,9.60
2024-01-22T12:38:39.606Z,9.60
2024-01-22T12:41:09.570Z,9.70
2024-01-22T12:43:34.440Z,9.60
2024-01-22T12:46:08.342Z,9.60
2024-01-22T12:48:32.929Z,9.70
2024-01-22T12:50:57.246Z,9.70
2024-01-22T12:53:21.458Z,9.70
2024-01-22T12:55:45.843Z,9.80
2024-01-22T12:58:12.782Z,9.80
2024-01-22T13:00:36.580Z,9.80
2024-01-22T13:03:02.119Z,9.80
2024-01-22T13:05:26.244Z,9.90
2024-01-22T13:07:49.938Z,9.90
2024-01-22T13:10:13.607Z,9.90
2024-01-22T13:12:38.461Z,9.90
2024-01-22T13:15:02.289Z,9.90
2024-01-22T13:17:26.358Z,9.90
2024-01-22T13:19:52.472Z,9.90
2024-01-22T13:22:16.811Z,9.90
2024-01-22T13:24:43.313Z,9.90
2024-01-22T13:27:08.137Z,10.00
2024-01-22T13:29:31.945Z,9.90
2024-01-22T13:31:56.882Z,9.90
2024-01-22T13:34:21.458Z,10.00
2024-01-22T13:36:46.911Z,9.90
2024-01-22T13:39:11.171Z,9.90
2024-01-22T13:41:35.046Z,9.90
2024-01-22T13:43:59.103Z,9.90
2024-01-22T13:46:24.137Z,9.90
2024-01-22T13:48:50.514Z,9.90
2024-01-22T13:51:15.099Z,10.00
2024-01-22T13:53:40.245Z,9.90
2024-01-22T13:56:05.123Z,9.90
2024-01-22T13:58:29.394Z,10.00
2024-01-22T14:00:53.149Z,9.90
2024-01-22T14:03:17.439Z,10.00
2024-01-22T14:05:41.293Z,9.90
2024-01-22T14:08:05.235Z,10.00
2024-01-22T14:10:30.501Z,9.90
2024-01-22T14:12:54.217Z,9.90
2024-01-22T14:15:18.054Z,10.00
2024-01-22T14:17:41.776Z,10.00
2024-01-22T14:20:08.199Z,10.00
2024-01-22T14:22:31.868Z,10.00
2024-01-22T14:24:55.925Z,9.90
2024-01-22T14:27:21.678Z,10.00
2024-01-22T14:29:45.761Z,10.00
2024-01-22T14:32:09.997Z,10.00
2024-01-22T14:34:33.924Z,10.00
2024-01-22T14:36:58.809Z,10.00
2024-01-22T14:39:22.723Z,10.00
2024-01-22T14:41:47.280Z,10.00
2024-01-22T14:44:13.669Z,10.00
2024-01-22T14:46:42.310Z,10.00
2024-01-22T14:49:12.930Z,10.10
2024-01-22T14:51:45.488Z,10.00
2024-01-22T14:54:09.149Z,10.00
2024-01-22T14:56:32.918Z,10.00
2024-01-22T14:58:57.464Z,10.00
2024-01-22T15:01:24.291Z,10.00
2024-01-22T15:03:48.048Z,10.00
2024-01-22T15:06:11.874Z,10.00
2024-01-22T15:08:36.560Z,10.00
2024-01-22T15:11:01.562Z,10.00
2024-01-22T15:13:25.226Z,9.90
2024-01-22T15:15:48.967Z,10.00
2024-01-22T15:18:14.415Z,10.00
2024-01-22T15:20:38.385Z,10.00
2024-01-22T15:23:02.051Z,9.90
2024-01-22T15:25:25.927Z,9.80
2024-01-22T15:27:49.731Z,9.80
2024-01-22T15:30:14.830Z,9.70
2024-01-22T15:32:38.663Z,9.70
2024-01-22T15:35:07.158Z,9.60
2024-01-22T15:37:31.728Z,9.60
2024-01-22T15:39:55.966Z,9.50
2024-01-22T15:42:19.833Z,9.50
2024-01-22T15:44:44.075Z,9.40
2024-01-22T15:47:08.815Z,9.40
2024-01-22T15:49:32.615Z,9.30
2024-01-22T15:51:57.952Z,9.30
2024-01-22T15:54:22.677Z,9.20
2024-01-22T15:56:46.473Z,9.20
2024-01-22T15:59:10.412Z,9.20
2024-01-22T16:01:34.206Z,9.20
2024-01-22T16:03:57.969Z,9.10
2024-01-22T16:06:23.874Z,9.10
2024-01-22T16:08:49.970Z,9.10
2024-01-22T16:11:13.749Z,9.10
2024-01-22T16:13:37.523Z,9.10
2024-01-22T16:16:01.255Z,9.10
2024-01-22T16:18:25.151Z,9.10
2024-01-22T16:20:49.173Z,9.10
2024-01-22T16:23:13.358Z,9.10
2024-01-22T16:25:38.574Z,9.00
2024-01-22T16:28:03.481Z,9.00
2024-01-22T16:30:27.371Z,9.00
2024-01-22T16:32:51.477Z,9.00
2024-01-22T16:35:15.430Z,9.00
2024-01-22T16:37:39.661Z,8.90
2024-01-22T16:40:05.144Z,9.00
2024-01-22T16:42:30.411Z,9.00
2024-01-22T16:44:54.082Z,8.90
2024-01-22T16:47:18.051Z,9.00
2024-01-22T16:49:43.576Z,9.00
2024-01-22T16:52:09.335Z,9.00
2024-01-22T16:54:33.754Z,8.90
2024-01-22T16:56:59.219Z,8.90
2024-01-22T16:59:25.034Z,8.90
2024-01-22T17:01:49.991Z,8.80
2024-01-22T17:04:15.583Z,8.80
2024-01-22T17:06:41.604Z,8.70
2024-01-22T17:09:08.340Z,8.60
2024-01-22T17:11:34.109Z,8.60
2024-01-22T17:13:59.705Z,8.60
2024-01-22T17:16:27.742Z,8.60
2024-01-22T17:18:54.539Z,8.50
2024-01-22T17:21:21.556Z,8.50
2024-01-22T17:23:47.971Z,8.40
2024-01-22T17:26:14.084Z,8.40
2024-01-22T17:28:42.528Z,8.40
2024-01-22T17:31:08.908Z,8.30
2024-01-22T17:33:38.832Z,8.30
2024-01-22T17:36:06.129Z,8.30
2024-01-22T17:38:31.618Z,8.30
2024-01-22T17:40:59.679Z,8.20
2024-01-22T17:43:25.788Z,8.20
2024-01-22T17:45:49.847Z,8.20
2024-01-22T17:48:14.031Z,8.20
2024-01-22T17:50:39.246Z,8.10
2024-01-22T17:53:04.197Z,8.10
2024-01-22T17:55:33.252Z,8.00
2024-01-22T17:57:57.664Z,8.00
2024-01-22T18:00:24.649Z,8.00
2024-01-22T18:02:48.499Z,8.00
2024-01-22T18:05:13.191Z,7.90
2024-01-22T18:07:38.551Z,7.90
2024-01-22T18:10:02.776Z,7.90
2024-01-22T18:12:26.466Z,7.90
2024-01-22T18:14:49.274Z,7.80
2024-01-22T18:17:12.934Z,7.80
2024-01-22T18:19:36.795Z,7.80
2024-01-22T18:22:00.494Z,7.70
2024-01-22T18:24:25.831Z,7.70
2024-01-22T18:26:49.652Z,7.70
2024-01-22T18:29:13.559Z,7.70
2024-01-22T18:31:37.256Z,7.70
2024-01-22T18:34:01.069Z,7.60
2024-01-22T18:36:25.609Z,7.60
2024-01-22T18:38:49.904Z,7.60
2024-01-22T18:41:23.983Z,7.60
2024-01-22T18:43:47.814Z,7.50
2024-01-22T18:46:16.342Z,7.50
2024-01-22T18:48:41.466Z,7.50
2024-01-22T18:51:05.795Z,7.50
2024-01-22T18:53:29.544Z,7.50
2024-01-22T18:55:53.271Z,7.50
2024-01-22T18:58:18.595Z,7.50
2024-01-22T19:00:42.503Z,7.50
2024-01-22T19:03:06.663Z,7.50
2024-01-22T19:05:30.359Z,7.40
2024-01-22T19:07:54.162Z,7.40
2024-01-22T19:10:17.944Z,7.40
2024-01-22T19:12:41.656Z,7.40
2024-01-22T19:15:08.184Z,7.40
2024-01-22T19:17:32.030Z,7.40
2024-01-22T19:19:55.824Z,7.40
2024-01-22T19:22:19.608Z,7.40
2024-01-22T19:24:44.105Z,7.30
2024-01-22T19:27:07.917Z,7.30
2024-01-22T19:29:31.722Z,7.30
2024-01-22T19:31:57.100Z,7.30
2024-01-22T19:34:20.948Z,7.20
2024-01-22T19:36:44.681Z,7.20
2024-01-22T19:39:08.682Z,7.20
2024-01-22T19:41:32.474Z,7.10
2024-01-22T19:43:56.350Z,7.10
2024-01-22T19:46:20.802Z,7.10
2024-01-22T19:48:46.036Z,7.10
2024-01-22T19:51:09.768Z,7.00
2024-01-22T19:53:34.173Z,7.10
2024-01-22T19:55:58.029Z,7.10
2024-01-22T19:58:21.691Z,7.00
2024-01-22T20:00:45.460Z,7.10
2024-01-22T20:03:09.223Z,7.00
2024-01-22T20:05:34.458Z,7.10
2024-01-22T20:07:58.139Z,7.10
2024-01-22T20:10:22.540Z,7.10
2024-01-22T20:12:46.264Z,7.10
2024-01-22T20:15:10.933Z,7.20
2024-01-22T20:17:34.805Z,7.10
2024-01-22T20:19:58.647Z,7.10
2024-01-22T20:22:23.766Z,7.10
2024-01-22T20:24:47.535Z,7.10
2024-01-22T20:27:11.330Z,7.10
2024-01-22T20:29:35.167Z,7.10
2024-01-22T20:31:59.099Z,7.10
2024-01-22T20:34:22.906Z,6.90
2024-01-22T20:36:46.686Z,6.90
2024-01-22T20:39:12.133Z,6.90
2024-01-22T20:41:35.847Z,6.90
2024-01-22T20:43:59.608Z,6.90
2024-01-22T20:46:23.318Z,6.90
2024-01-22T20:48:47.168Z,6.80
2024-01-22T20:51:11.578Z,6.90
2024-01-22T20:53:36.530Z,6.90
2024-01-22T20:56:01.647Z,6.90
2024-01-22T20:58:28.353Z,6.80
2024-01-22T21:00:52.487Z,6.90
2024-01-22T21:03:16.851Z,6.90
2024-01-22T21:05:40.690Z,7.00
2024-01-22T21:08:05.648Z,7.00
2024-01-22T21:10:29.419Z,6.90
2024-01-22T21:12:54.557Z,6.90
2024-01-22T21:15:18.397Z,6.90
2024-01-22T21:17:43.326Z,6.90
2024-01-22T21:20:09.007Z,6.80
2024-01-22T21:22:32.861Z,6.80
2024-01-22T21:24:56.835Z,6.70
2024-01-22T21:27:20.752Z,6.70
2024-01-22T21:29:45.967Z,6.70
2024-01-22T21:32:09.876Z,6.70
2024-01-22T21:34:33.730Z,6.60
2024-01-22T21:36:57.621Z,6.60
2024-01-22T21:39:21.313Z,6.60
2024-01-22T21:41:45.294Z,6.60
2024-01-22T21:44:08.992Z,6.60
2024-01-22T21:46:33.105Z,6.50
2024-01-22T21:48:56.904Z,6.50
2024-01-22T21:51:20.723Z,6.50
2024-01-22T21:53:45.774Z,6.50
2024-01-22T21:56:10.089Z,6.50
2024-01-22T21:58:33.784Z,6.50
2024-01-22T22:00:57.656Z,6.40
2024-01-22T22:03:24.844Z,6.40
2024-01-22T22:05:49.428Z,6.30
2024-01-22T22:08:13.405Z,6.30
2024-01-22T22:10:37.209Z,6.30
2024-01-22T22:13:00.969Z,6.30
2024-01-22T22:15:24.982Z,6.20
2024-01-22T22:17:50.438Z,6.20
2024-01-22T22:20:16.545Z,6.20
2024-01-22T22:22:40.489Z,6.20
2024-01-22T22:25:04.297Z,6.20
2024-01-22T22:27:28.008Z,6.20
2024-01-22T22:29:52.009Z,6.20
2024-01-22T22:32:15.797Z,6.20
2024-01-22T22:34:39.605Z,6.20
2024-01-22T22:37:04.797Z,6.20
2024-01-22T22:39:28.744Z,6.20
2024-01-22T22:41:52.475Z,6.20
2024-01-22T22:44:16.785Z,6.20
2024-01-22T22:46:42.835Z,6.20
2024-01-22T22:49:07.671Z,6.20
2024-01-22T22:51:31.548Z,6.10
2024-01-22T22:53:56.739Z,6.10
2024-01-22T22:56:20.489Z,6.10
2024-01-22T22:58:44.636Z,6.20
2024-01-22T23:01:10.527Z,6.10
2024-01-22T23:03:34.448Z,6.10
2024-01-22T23:05:58.265Z,6.10
2024-01-22T23:08:22.157Z,6.10
2024-01-22T23:10:47.308Z,6.10
2024-01-22T23:13:11.048Z,6.10
2024-01-22T23:15:34.915Z,6.10
2024-01-22T23:17:58.813Z,6.10
2024-01-22T23:20:22.546Z,6.10
2024-01-22T23:22:46.313Z,6.00
2024-01-22T23:25:10.672Z,6.00
2024-01-22T23:27:36.178Z,6.00
2024-01-22T23:29:59.882Z,5.90
2024-01-22T23:32:24.003Z,5.90
2024-01-22T23:34:47.772Z,6.00
2024-01-22T23:37:11.545Z,6.00
2024-01-22T23:39:35.599Z,6.00
2024-01-22T23:41:59.403Z,6.00
2024-01-22T23:44:23.481Z,6.00
2024-01-22T23:46:47.265Z,6.10
2024-01-22T23:49:10.998Z,6.10
2024-01-22T23:51:34.892Z,6.00
2024-01-22T23:53:58.652Z,6.10
2024-01-22T23:56:22.981Z,6.10
2024-01-22T23:58:47.192Z,6.10
